Time;durP1;ratioP1;P1;durP2;ratioP2;P2;SDS_P1;SDS_P2;PMS_P1;PMS_P2;Temp;Humidity;BMP_temperature;BMP_pressure;BME280_temperature;BME280_humidity;BME280_pressure;Samples;Min_cycle;Max_cycle;Signal;HPM_P1;HPM_P2
2023/09/22 00:00:15;;;;;;;9.87;3.30;;;;;;;24.86;55.62;98937.97;5052853;28;20585;-88
2023/09/22 00:02:43;;;;;;;7.00;3.47;;;;;;;24.90;55.22;98944.63;5032043;28;20171;-87
2023/09/22 00:05:14;;;;;;;7.23;3.50;;;;;;;24.86;55.26;98951.38;5032882;28;20236;-88
2023/09/22 00:07:40;;;;;;;5.77;2.93;;;;;;;24.74;55.83;98950.88;5035719;28;20532;-87
2023/09/22 00:10:08;;;;;;;6.30;3.23;;;;;;;24.62;56.05;98936.22;5052797;28;20166;-88
2023/09/22 00:12:33;;;;;;;8.77;2.87;;;;;;;24.57;56.22;98929.69;5034990;28;20235;-87
2023/09/22 00:15:01;;;;;;;9.40;3.60;;;;;;;24.62;55.89;98933.53;5051837;28;20177;-88
2023/09/22 00:17:28;;;;;;;5.53;3.03;;;;;;;24.66;55.67;98936.72;5053654;28;20189;-88
2023/09/22 00:19:54;;;;;;;7.33;3.63;;;;;;;24.60;55.54;98938.25;5055792;28;20174;-88
2023/09/22 00:22:22;;;;;;;6.20;3.37;;;;;;;24.59;55.36;98939.22;5055941;28;20201;-87
2023/09/22 00:24:47;;;;;;;5.90;2.63;;;;;;;24.60;55.30;98948.97;5056408;28;20180;-87
2023/09/22 00:27:15;;;;;;;6.97;3.60;;;;;;;24.52;55.65;98953.50;5055159;28;20264;-88
2023/09/22 00:29:42;;;;;;;6.50;2.70;;;;;;;24.47;55.77;98958.56;5055760;28;20178;-87
2023/09/22 00:32:10;;;;;;;6.43;3.50;;;;;;;24.35;55.94;98952.72;5042987;28;20289;-88
2023/09/22 00:34:38;;;;;;;9.47;3.20;;;;;;;24.26;55.99;98943.03;5036712;28;20623;-87
2023/09/22 00:37:05;;;;;;;7.10;2.93;;;;;;;24.23;56.52;98944.22;5049750;28;20178;-88
2023/09/22 00:39:30;;;;;;;5.70;3.00;;;;;;;24.19;56.48;98948.22;5056116;28;20264;-87
2023/09/22 00:41:57;;;;;;;6.00;3.03;;;;;;;24.20;56.65;98949.06;5055330;28;20272;-88
2023/09/22 00:44:22;;;;;;;7.93;3.73;;;;;;;24.15;56.52;98957.63;5055376;28;20269;-88
2023/09/22 00:46:49;;;;;;;8.00;3.47;;;;;;;24.06;56.73;98952.41;5056400;28;20587;-88
2023/09/22 00:49:17;;;;;;;8.70;3.93;;;;;;;24.02;56.70;98946.59;5056041;28;20177;-87
2023/09/22 00:51:44;;;;;;;6.50;2.80;;;;;;;23.97;56.93;98945.41;5045784;28;20348;-87
2023/09/22 00:54:11;;;;;;;8.03;3.60;;;;;;;23.93;56.88;98949.41;5036044;28;20177;-87
2023/09/22 00:56:37;;;;;;;6.90;2.87;;;;;;;23.93;57.02;98949.41;5037590;28;20170;-87
2023/09/22 00:59:05;;;;;;;5.27;3.27;;;;;;;23.96;56.60;98951.75;5055892;28;20178;-88
2023/09/22 01:01:31;;;;;;;12.77;3.80;;;;;;;24.00;56.60;98953.13;5056175;28;20174;-88
2023/09/22 01:03:57;;;;;;;7.03;3.70;;;;;;;23.98;56.33;98953.25;5055661;28;20601;-87
2023/09/22 01:06:25;;;;;;;5.63;3.03;;;;;;;23.90;56.44;98939.06;5056301;28;20180;-87
2023/09/22 01:08:50;;;;;;;7.90;3.33;;;;;;;23.91;56.31;98943.41;5055645;28;20177;-87
2023/09/22 01:11:18;;;;;;;6.10;3.03;;;;;;;23.92;56.27;98948.59;5055559;28;20258;-87
2023/09/22 01:13:43;;;;;;;5.40;2.90;;;;;;;23.88;56.11;98949.94;5054443;28;20523;-88
2023/09/22 01:16:10;;;;;;;12.37;3.00;;;;;;;23.75;56.69;98944.25;5055596;28;20236;-87
2023/09/22 01:18:36;;;;;;;6.13;3.07;;;;;;;23.60;57.35;98933.41;5054384;28;20205;-87
2023/09/22 01:21:01;;;;;;;9.70;3.03;;;;;;;23.45;57.30;98940.44;5055406;28;20265;-87
2023/09/22 01:23:28;;;;;;;7.00;3.00;;;;;;;23.37;57.98;98940.44;5054509;28;20178;-87
2023/09/22 01:25:53;;;;;;;4.77;2.70;;;;;;;23.38;57.80;98952.78;5055297;28;20185;-87
2023/09/22 01:28:19;;;;;;;7.13;3.23;;;;;;;23.51;57.63;98953.13;5054749;28;20173;-87
2023/09/22 01:30:47;;;;;;;5.50;2.70;;;;;;;23.52;57.06;98941.44;5053850;28;20177;-87
2023/09/22 01:33:13;;;;;;;4.70;2.37;;;;;;;23.58;56.92;98938.09;5055300;28;20166;-87
2023/09/22 01:35:40;;;;;;;9.30;2.63;;;;;;;23.65;56.47;98949.81;5054989;28;20182;-87
2023/09/22 01:38:25;;;;;;;9.83;2.80;;;;;;;23.73;56.24;98944.44;5055985;28;20231;-87
2023/09/22 01:40:54;;;;;;;6.10;3.17;;;;;;;23.83;55.62;98953.13;5061338;28;20582;-88
2023/09/22 01:43:21;;;;;;;6.13;3.20;;;;;;;23.83;55.61;98954.97;5075345;28;20165;-87
2023/09/22 01:45:47;;;;;;;6.80;2.63;;;;;;;23.77;55.56;98959.16;5057225;28;20173;-88
2023/09/22 01:48:14;;;;;;;8.77;2.93;;;;;;;23.70;55.56;98958.16;5074913;28;20169;-88
2023/09/22 01:50:41;;;;;;;8.10;3.10;;;;;;;23.72;55.50;98956.13;5056983;28;20263;-88
2023/09/22 01:53:10;;;;;;;5.77;2.37;;;;;;;23.71;55.72;98954.50;5057478;28;20603;-87
2023/09/22 01:55:38;;;;;;;8.10;3.47;;;;;;;23.62;55.82;98942.09;5075096;28;20172;-87
2023/09/22 01:58:07;;;;;;;7.47;2.57;;;;;;;23.55;55.84;98949.13;5057228;28;20184;-88
2023/09/22 02:00:35;;;;;;;4.10;2.50;;;;;;;23.51;56.50;98938.91;5074662;28;20173;-88
2023/09/22 02:03:01;;;;;;;4.17;2.37;;;;;;;23.47;56.50;98935.75;5074656;28;20181;-87
2023/09/22 02:05:29;;;;;;;6.13;2.70;;;;;;;23.42;56.56;98932.75;5074691;28;20175;-87
2023/09/22 02:07:57;;;;;;;5.10;2.67;;;;;;;23.35;56.92;98931.69;5074250;28;20181;-88
2023/09/22 02:10:24;;;;;;;8.23;3.00;;;;;;;23.32;57.12;98942.75;5074595;28;20169;-88
2023/09/22 02:12:50;;;;;;;5.60;2.67;;;;;;;23.36;56.59;98956.59;5074541;28;20222;-87
2023/09/22 02:15:16;;;;;;;5.60;3.03;;;;;;;23.42;56.36;98962.16;5074702;28;20168;-87
2023/09/22 02:17:43;;;;;;;7.50;2.70;;;;;;;23.38;56.35;98960.81;5056581;28;20216;-87
2023/09/22 02:20:18;;;;;;;6.87;3.17;;;;;;;23.37;56.50;98974.38;5074581;28;20528;-87
2023/09/22 02:22:48;;;;;;;8.40;3.00;;;;;;;23.25;56.68;98979.16;5056482;28;20187;-88
2023/09/22 02:25:17;;;;;;;9.37;3.17;;;;;;;23.13;57.03;98970.63;5056859;28;20173;-88
2023/09/22 02:27:45;;;;;;;7.43;3.77;;;;;;;23.03;57.36;98974.44;5074118;28;20589;-86
2023/09/22 02:30:12;;;;;;;5.73;3.20;;;;;;;22.97;57.54;98972.41;5073887;28;20210;-87
2023/09/22 02:32:41;;;;;;;8.00;3.00;;;;;;;22.93;57.66;98971.06;5056225;28;20215;-87
2023/09/22 02:35:08;;;;;;;6.57;2.83;;;;;;;22.94;57.41;98980.75;5074301;28;20173;-87
2023/09/22 02:37:34;;;;;;;4.90;2.50;;;;;;;22.84;57.83;98986.22;5073755;28;20273;-87
2023/09/22 02:40:02;;;;;;;8.60;3.27;;;;;;;22.74;58.22;98972.16;5056053;28;20230;-87
2023/09/22 02:42:28;;;;;;;7.00;2.77;;;;;;;22.69;58.46;98973.66;5073266;28;20224;-87
2023/09/22 02:44:55;;;;;;;8.13;3.03;;;;;;;22.68;58.50;98975.47;5073828;28;20539;-87
2023/09/22 02:47:21;;;;;;;7.63;3.17;;;;;;;22.66;58.64;98980.16;5055836;28;20183;-88
2023/09/22 02:49:48;;;;;;;7.40;3.90;;;;;;;22.64;58.94;98984.81;5073891;28;20161;-87
2023/09/22 02:52:15;;;;;;;6.57;2.80;;;;;;;22.58;58.94;98974.75;5056004;28;20208;-87
2023/09/22 02:54:40;;;;;;;9.20;3.43;;;;;;;22.60;58.77;98976.25;5055621;28;20265;-88
2023/09/22 02:57:06;;;;;;;6.10;3.67;;;;;;;22.63;58.57;98989.31;5056437;28;20264;-88
2023/09/22 02:59:33;;;;;;;8.10;3.07;;;;;;;22.72;58.58;98984.84;5073150;28;20269;-87
2023/09/22 03:01:59;;;;;;;6.37;3.50;;;;;;;22.61;58.79;98985.91;5056277;28;20181;-87
2023/09/22 03:04:25;;;;;;;7.40;3.17;;;;;;;22.60;58.58;98973.59;5073693;28;20169;-87
2023/09/22 03:06:52;;;;;;;7.90;3.60;;;;;;;22.57;58.85;98979.25;5073235;28;20529;-87
2023/09/22 03:09:18;;;;;;;8.40;3.20;;;;;;;22.57;59.34;98979.25;5055677;28;20165;-87
2023/09/22 03:11:44;;;;;;;5.50;3.13;;;;;;;22.51;59.15;98979.06;5056161;28;20262;-87
2023/09/22 03:14:11;;;;;;;7.87;3.50;;;;;;;22.51;59.46;98981.72;5073167;28;20260;-87
2023/09/22 03:16:37;;;;;;;8.67;3.30;;;;;;;22.54;59.12;98987.56;5073498;28;20272;-87
2023/09/22 03:19:03;;;;;;;7.40;2.60;;;;;;;22.58;58.96;98985.44;5073651;28;20674;-88
2023/09/22 03:21:30;;;;;;;9.67;2.90;;;;;;;22.52;59.13;98989.56;5055908;28;20195;-87
2023/09/22 03:23:57;;;;;;;8.37;3.43;;;;;;;22.49;58.97;98995.22;5055286;28;20279;-87
2023/09/22 03:26:24;;;;;;;7.13;2.90;;;;;;;22.42;59.36;99002.22;5055629;28;20273;-87
2023/09/22 03:28:51;;;;;;;5.70;3.20;;;;;;;22.30;59.71;98994.63;5059115;28;20181;-87
2023/09/22 03:31:19;;;;;;;7.47;3.53;;;;;;;22.22;59.85;98992.72;5053357;28;20693;-87
2023/09/22 03:33:46;;;;;;;5.50;3.07;;;;;;;22.12;60.55;98997.34;5054234;28;20204;-87
2023/09/22 03:36:13;;;;;;;6.37;2.87;;;;;;;22.10;60.88;99006.50;5073118;28;20177;-87
2023/09/22 03:38:49;;;;;;;6.23;3.50;;;;;;;22.11;60.91;99003.69;5073164;28;20269;-87
2023/09/22 03:41:17;;;;;;;9.70;4.07;;;;;;;22.09;60.74;99008.31;5072947;28;20278;-87
2023/09/22 03:43:45;;;;;;;5.70;3.00;;;;;;;22.16;60.83;99001.38;5055481;28;20195;-87
2023/09/22 03:46:12;;;;;;;6.17;3.77;;;;;;;22.19;60.71;99001.06;5055339;28;20633;-87
2023/09/22 03:48:38;;;;;;;10.13;3.97;;;;;;;22.18;60.60;98998.53;5072768;28;20181;-88
2023/09/22 03:51:04;;;;;;;6.67;3.63;;;;;;;22.15;60.92;99005.03;5055549;28;20204;-87
2023/09/22 03:53:31;;;;;;;5.10;2.97;;;;;;;22.17;60.87;99004.91;5059707;28;20181;-88
2023/09/22 03:55:57;;;;;;;6.63;3.10;;;;;;;22.20;60.66;99012.56;5059358;28;20200;-87
2023/09/22 03:58:25;;;;;;;6.30;3.10;;;;;;;22.14;60.50;99014.06;5077036;28;20180;-87
2023/09/22 04:00:52;;;;;;;9.83;3.70;;;;;;;22.11;60.80;99011.69;5059018;28;20185;-87
2023/09/22 04:03:20;;;;;;;6.57;3.40;;;;;;;22.12;60.88;99008.00;5059630;28;20184;-87
2023/09/22 04:05:46;;;;;;;5.53;2.83;;;;;;;22.12;60.54;99016.03;5077071;28;20179;-87
2023/09/22 04:08:12;;;;;;;10.50;3.40;;;;;;;22.08;60.61;99004.00;5059526;28;20264;-87
2023/09/22 04:10:38;;;;;;;4.43;2.97;;;;;;;22.08;60.77;99009.34;5059209;28;20169;-87
2023/09/22 04:13:05;;;;;;;6.27;3.63;;;;;;;22.10;60.64;99001.16;5059162;28;20223;-87
2023/09/22 04:15:31;;;;;;;6.90;3.67;;;;;;;22.10;60.46;99003.81;5058826;28;20188;-87
2023/09/22 04:17:57;;;;;;;6.07;3.43;;;;;;;22.14;60.51;99011.38;5058994;28;20177;-87
2023/09/22 04:20:29;;;;;;;8.07;3.70;;;;;;;22.20;59.99;99008.06;5058832;28;20180;-86
2023/09/22 04:22:58;;;;;;;7.10;3.50;;;;;;;22.20;59.98;98997.38;5058945;28;20169;-87
2023/09/22 04:25:36;;;;;;;10.70;4.00;;;;;;;22.18;60.03;98998.53;5076669;28;20177;-87
2023/09/22 04:28:11;;;;;;;6.07;3.03;;;;;;;22.16;59.82;99001.38;5076831;28;20161;-87
2023/09/22 04:30:38;;;;;;;5.30;3.03;;;;;;;22.16;59.98;98998.72;5076647;28;20153;-87
2023/09/22 04:33:05;;;;;;;8.23;3.57;;;;;;;22.17;59.93;98994.22;5058486;28;20220;-87
2023/09/22 04:35:36;;;;;;;5.33;3.20;;;;;;;22.23;60.18;98993.56;5075885;28;20191;-87
2023/09/22 04:38:04;;;;;;;11.03;3.43;;;;;;;22.17;60.14;98984.34;5077151;28;20188;-87
2023/09/22 04:40:36;;;;;;;9.60;4.07;;;;;;;22.17;60.40;98981.69;5058545;28;20173;-88
2023/09/22 04:43:07;;;;;;;8.30;3.50;;;;;;;22.21;60.33;98988.41;5076045;28;20188;-88
2023/09/22 04:45:38;;;;;;;6.17;3.53;;;;;;;22.26;60.45;98994.09;5058685;28;20250;-87
2023/09/22 04:48:05;;;;;;;11.90;3.60;;;;;;;22.28;59.82;99004.59;5058807;28;20336;-87
2023/09/22 04:50:32;;;;;;;7.60;3.93;;;;;;;22.33;59.88;99004.97;5058576;28;20234;-87
2023/09/22 04:53:00;;;;;;;9.20;4.57;;;;;;;22.40;59.66;99014.88;5059106;28;20223;-87
2023/09/22 04:55:29;;;;;;;7.57;3.90;;;;;;;22.41;59.49;99011.22;5059219;28;20259;-87
2023/09/22 04:57:56;;;;;;;7.33;3.20;;;;;;;22.44;59.24;99010.88;5038581;28;20185;-88
2023/09/22 05:00:24;;;;;;;14.10;4.07;;;;;;;22.41;59.35;99010.34;5056164;28;20162;-87
2023/09/22 05:02:55;;;;;;;11.07;3.90;;;;;;;22.45;59.02;99009.91;5051649;28;20260;-87
2023/09/22 05:05:22;;;;;;;9.90;4.33;;;;;;;22.52;59.18;99012.75;5057937;28;20255;-88
2023/09/22 05:07:47;;;;;;;10.50;3.50;;;;;;;22.57;59.23;99013.13;5058371;28;20554;-87
2023/09/22 05:10:14;;;;;;;6.03;3.50;;;;;;;22.61;59.37;99014.50;5058386;28;20173;-87
2023/09/22 05:12:39;;;;;;;10.03;3.63;;;;;;;22.63;59.21;99016.03;5075814;28;20205;-87
2023/09/22 05:15:07;;;;;;;9.03;4.03;;;;;;;22.67;59.49;99015.72;5057947;28;20337;-88
2023/09/22 05:17:34;;;;;;;6.07;3.60;;;;;;;22.81;59.29;99023.13;5075771;28;20184;-87
2023/09/22 05:20:04;;;;;;;10.50;3.50;;;;;;;22.99;58.77;99023.88;5058332;28;20181;-87
2023/09/22 05:22:30;;;;;;;10.13;3.53;;;;;;;23.08;58.33;99022.91;5075751;28;20165;-87
2023/09/22 05:24:57;;;;;;;7.67;3.30;;;;;;;23.10;58.45;99031.59;5057842;28;20177;-88
2023/09/22 05:27:28;;;;;;;10.03;4.07;;;;;;;23.11;58.51;99038.63;5057936;28;20177;-87
2023/09/22 05:29:54;;;;;;;14.30;4.30;;;;;;;23.17;58.26;99035.28;5058619;28;20177;-87
2023/09/22 05:32:20;;;;;;;6.23;3.27;;;;;;;23.23;58.13;99040.00;5075178;28;20737;-87
2023/09/22 05:34:47;;;;;;;9.77;4.37;;;;;;;23.31;58.38;99045.38;5075789;28;20177;-87
2023/09/22 05:37:13;;;;;;;7.93;4.17;;;;;;;23.25;58.45;99046.00;5057343;28;20200;-87
2023/09/22 05:39:39;;;;;;;9.40;3.87;;;;;;;23.27;58.19;99043.19;5057490;28;20541;-86
2023/09/22 05:42:06;;;;;;;11.53;3.63;;;;;;;23.33;58.06;99051.38;5074672;28;20221;-87
2023/09/22 05:44:33;;;;;;;6.70;3.60;;;;;;;23.41;58.20;99051.44;5058055;28;20181;-87
2023/09/22 05:47:00;;;;;;;11.93;3.77;;;;;;;23.48;57.92;99047.09;5057318;28;20181;-88
2023/09/22 05:49:30;;;;;;;6.43;3.37;;;;;;;23.54;58.37;99054.47;5057340;28;20173;-88
2023/09/22 05:51:56;;;;;;;9.20;3.73;;;;;;;23.59;58.34;99046.78;5075692;28;20606;-88
2023/09/22 05:54:22;;;;;;;7.87;3.07;;;;;;;23.64;58.21;99043.63;5057224;28;20181;-87
2023/09/22 05:56:48;;;;;;;8.63;3.90;;;;;;;23.67;58.10;99040.59;5057174;28;20181;-87
2023/09/22 05:59:15;;;;;;;9.37;3.80;;;;;;;23.78;58.06;99051.84;5057078;28;20234;-87
2023/09/22 06:01:42;;;;;;;10.33;3.90;;;;;;;23.97;58.36;99048.00;5057540;28;20286;-87
2023/09/22 06:04:11;;;;;;;7.83;3.73;;;;;;;24.26;57.40;99044.84;5057351;28;20176;-87
2023/09/22 06:06:36;;;;;;;8.63;3.27;;;;;;;24.70;57.17;99051.44;5074915;28;20181;-87
2023/09/22 06:09:10;;;;;;;6.07;3.27;;;;;;;25.07;55.85;99047.31;5056947;28;20173;-88
2023/09/22 06:11:38;;;;;;;7.50;3.90;;;;;;;25.31;54.86;99053.41;5057621;28;20196;-88
2023/09/22 06:14:05;;;;;;;7.43;3.63;;;;;;;25.74;54.39;99054.66;5057017;28;20181;-88
2023/09/22 06:16:32;;;;;;;12.00;3.90;;;;;;;26.26;52.60;99056.66;5056949;28;20242;-87
2023/09/22 06:18:58;;;;;;;8.17;3.37;;;;;;;26.80;51.40;99053.59;5056439;28;20263;-87
2023/09/22 06:21:26;;;;;;;4.50;2.23;;;;;;;27.22;50.26;99047.50;5074455;28;20173;-87
2023/09/22 06:23:53;;;;;;;9.00;3.13;;;;;;;27.93;49.41;99043.97;5074021;28;20187;-87
2023/09/22 06:26:20;;;;;;;10.35;2.83;;;;;;;28.76;46.82;99043.19;5056924;28;20184;-87
2023/09/22 06:28:46;;;;;;;7.03;3.67;;;;;;;29.56;44.43;99031.72;5056529;28;20626;-88
2023/09/22 06:31:13;;;;;;;10.48;3.40;;;;;;;30.20;42.66;99030.16;5056235;28;20200;-87
2023/09/22 06:33:39;;;;;;;5.40;2.90;;;;;;;30.72;41.67;99025.75;5073708;28;20177;-88
2023/09/22 06:36:05;;;;;;;7.03;3.20;;;;;;;31.16;40.51;99035.84;5074507;28;20173;-87
2023/09/22 06:38:33;;;;;;;6.72;3.53;;;;;;;31.83;39.64;99040.72;5056334;28;20254;-88
2023/09/22 06:41:02;;;;;;;6.68;2.63;;;;;;;32.42;38.50;99046.53;5074228;28;20180;-88
2023/09/22 06:43:30;;;;;;;7.75;3.22;;;;;;;32.88;36.66;99051.53;5073865;28;20161;-89
2023/09/22 06:45:59;;;;;;;10.18;4.90;;;;;;;33.09;35.87;99056.56;5073815;28;20173;-89
2023/09/22 06:48:29;;;;;;;11.02;6.78;;;;;;;33.39;35.97;99059.31;5073726;28;20216;-89
2023/09/22 06:50:59;;;;;;;8.00;3.75;;;;;;;33.79;35.20;99056.91;5055894;28;20668;-89
2023/09/22 06:53:28;;;;;;;144.63;65.05;;;;;;;33.95;34.09;99053.53;5073548;28;20211;-89
2023/09/22 06:56:08;;;;;;;276.52;133.57;;;;;;;33.68;34.28;99054.97;5073641;28;20185;-89
2023/09/22 06:58:35;;;;;;;52.10;22.63;;;;;;;33.10;35.29;99049.25;5073638;28;20180;-87
2023/09/22 07:01:13;;;;;;;12.00;5.13;;;;;;;32.71;36.11;99055.88;5056837;28;20265;-89
2023/09/22 07:03:41;;;;;;;38.85;18.58;;;;;;;32.73;35.67;99053.81;5073716;28;20173;-89
2023/09/22 07:06:10;;;;;;;8.70;4.43;;;;;;;32.66;35.38;99048.41;5073449;28;20533;-88
2023/09/22 07:08:39;;;;;;;9.48;4.15;;;;;;;32.43;35.55;99047.38;5073290;28;20177;-88
2023/09/22 07:11:08;;;;;;;12.30;5.05;;;;;;;32.34;37.00;99049.53;5055947;28;20531;-89
2023/09/22 07:13:34;;;;;;;13.68;7.57;;;;;;;32.45;36.56;99061.53;5068851;28;20177;-88
2023/09/22 07:16:01;;;;;;;54.60;30.88;;;;;;;32.65;36.76;99063.03;5053925;28;20176;-89
2023/09/22 07:18:27;;;;;;;22.52;15.77;;;;;;;32.89;36.85;99064.03;5053442;28;20181;-89
2023/09/22 07:20:54;;;;;;;9.55;4.60;;;;;;;33.14;35.82;99062.13;5053135;28;20177;-89
2023/09/22 07:23:21;;;;;;;13.95;6.35;;;;;;;33.14;35.53;99073.00;5053262;28;20311;-88
2023/09/22 07:26:04;;;;;;;15.18;7.13;;;;;;;33.20;35.49;99066.63;5043382;28;20199;-88
2023/09/22 07:28:32;;;;;;;15.07;3.50;;;;;;;33.22;35.03;99069.16;5073298;28;20161;-88
2023/09/22 07:30:59;;;;;;;12.00;5.53;;;;;;;33.30;36.32;99058.81;5072903;28;20650;-89
2023/09/22 07:33:30;;;;;;;6.97;3.08;;;;;;;33.39;35.07;99068.28;5072934;28;20272;-88
2023/09/22 07:35:57;;;;;;;12.18;4.40;;;;;;;33.50;35.39;99063.13;5073303;28;20157;-88
2023/09/22 07:38:25;;;;;;;5.90;2.90;;;;;;;33.45;34.18;99063.00;5073174;28;20173;-88
2023/09/22 07:40:51;;;;;;;5.60;2.90;;;;;;;33.38;35.42;99063.94;5055352;28;20181;-88
2023/09/22 07:43:16;;;;;;;4.18;2.28;;;;;;;33.57;35.33;99053.06;5054966;28;20212;-89
2023/09/22 07:45:44;;;;;;;5.32;2.53;;;;;;;33.54;34.64;99050.75;5073056;28;20713;-89
2023/09/22 07:48:12;;;;;;;7.93;3.35;;;;;;;33.62;34.82;99051.28;5073040;28;20177;-90
2023/09/22 07:50:39;;;;;;;5.40;2.15;;;;;;;33.62;34.74;99042.31;5072935;28;20181;-88
2023/09/22 07:53:05;;;;;;;12.77;5.85;;;;;;;33.65;34.02;99039.94;5072986;28;20338;-91
2023/09/22 07:55:31;;;;;;;6.78;1.95;;;;;;;33.53;35.10;99038.22;5072904;28;20267;-90
2023/09/22 07:57:57;;;;;;;4.32;2.03;;;;;;;33.68;35.40;99041.38;5072806;28;20255;-90
2023/09/22 08:00:26;;;;;;;6.10;2.55;;;;;;;33.65;34.69;99042.66;5073169;28;20173;-91
2023/09/22 08:02:51;;;;;;;3.22;1.92;;;;;;;33.79;34.74;99040.59;5072675;28;20173;-91
2023/09/22 08:05:18;;;;;;;4.85;2.13;;;;;;;33.86;34.38;99036.72;5073004;28;20532;-90
2023/09/22 08:07:52;;;;;;;7.22;2.55;;;;;;;34.07;34.11;99038.09;5055322;28;20181;-90
2023/09/22 08:10:22;;;;;;;3.67;1.60;;;;;;;34.17;33.56;99037.53;5072739;28;20199;-90
2023/09/22 08:12:49;;;;;;;7.57;2.40;;;;;;;34.23;33.89;99034.69;5072938;28;20217;-91
2023/09/22 08:15:16;;;;;;;3.90;1.83;;;;;;;34.34;33.84;99031.16;5073121;28;20185;-92
2023/09/22 08:17:46;;;;;;;3.83;1.90;;;;;;;34.28;32.24;99029.34;5055056;28;20193;-91
2023/09/22 08:20:13;;;;;;;5.82;2.00;;;;;;;33.89;33.07;99024.53;5072811;28;20184;-90
2023/09/22 08:22:42;;;;;;;7.07;2.28;;;;;;;33.26;33.96;99027.69;5072659;28;20238;-90
2023/09/22 08:25:09;;;;;;;5.13;2.20;;;;;;;33.51;34.58;99022.16;5055658;28;20688;-90
2023/09/22 08:27:37;;;;;;;4.35;1.83;;;;;;;33.70;33.98;99012.09;5072513;28;20280;-90
2023/09/22 08:30:11;;;;;;;3.45;1.92;;;;;;;33.52;33.91;99015.63;5072705;28;20269;-90
2023/09/22 08:32:42;;;;;;;9.82;2.22;;;;;;;33.41;34.08;99021.88;5054844;28;20192;-92
2023/09/22 08:35:10;;;;;;;4.40;1.83;;;;;;;33.63;33.82;99014.06;5073355;28;20177;-90
2023/09/22 08:37:41;;;;;;;5.85;2.30;;;;;;;33.58;32.90;99011.19;5054942;28;20173;-90
2023/09/22 08:40:09;;;;;;;3.78;1.92;;;;;;;33.71;32.85;99009.13;5057952;28;20248;-90
2023/09/22 08:42:36;;;;;;;5.45;2.40;;;;;;;33.45;32.22;99014.91;5058520;28;20220;-91
2023/09/22 08:45:06;;;;;;;5.30;1.70;;;;;;;33.74;31.69;99015.97;5076091;28;20185;-91
2023/09/22 08:47:40;;;;;;;3.65;1.90;;;;;;;34.05;32.03;99009.41;5076200;28;20619;-90
2023/09/22 08:50:19;;;;;;;5.00;2.22;;;;;;;34.36;32.79;99012.69;5058583;28;20165;-91
2023/09/22 08:52:50;;;;;;;5.13;1.90;;;;;;;34.42;32.21;99011.75;5076135;28;20610;-90
2023/09/22 08:55:16;;;;;;;4.80;1.70;;;;;;;34.57;32.08;98998.50;5075818;28;20184;-91
2023/09/22 08:57:45;;;;;;;3.50;1.30;;;;;;;34.83;31.81;99007.25;5076003;28;20165;-91
2023/09/22 09:00:23;;;;;;;3.78;1.85;;;;;;;34.93;32.00;99002.81;5075591;28;20177;-90
2023/09/22 09:02:51;;;;;;;7.10;2.13;;;;;;;35.04;31.16;98998.41;5063621;28;20258;-92
2023/09/22 09:05:30;;;;;;;6.20;2.63;;;;;;;35.09;31.12;99001.28;5025131;28;20193;-92
2023/09/22 09:08:10;;;;;;;4.93;2.47;;;;;;;34.90;31.59;99007.94;5062516;28;20634;-90
2023/09/22 09:10:36;;;;;;;4.40;2.10;;;;;;;34.77;31.86;99002.75;5075151;28;20169;-89
2023/09/22 09:13:03;;;;;;;5.00;2.17;;;;;;;34.88;31.45;99005.44;5075588;28;20193;-90
2023/09/22 09:15:41;;;;;;;9.13;2.58;;;;;;;35.17;31.02;98996.28;5058032;28;20177;-89
2023/09/22 09:18:09;;;;;;;7.85;2.22;;;;;;;35.34;31.48;99003.69;5058320;28;20176;-90
2023/09/22 09:20:37;;;;;;;10.00;2.33;;;;;;;35.17;30.80;98995.44;5058011;28;20268;-89
2023/09/22 09:23:16;;;;;;;6.57;1.70;;;;;;;35.42;30.83;98995.94;5075100;28;20181;-91
2023/09/22 09:25:45;;;;;;;7.30;2.22;;;;;;;35.62;30.75;98979.97;5075820;28;20173;-90
2023/09/22 09:28:12;;;;;;;6.38;2.47;;;;;;;35.76;31.08;98992.25;5075376;28;20177;-90
2023/09/22 09:30:55;;;;;;;2.50;1.40;;;;;;;35.85;31.01;98980.94;5075086;28;20238;-90
2023/09/22 09:33:34;;;;;;;8.18;2.17;;;;;;;35.98;30.57;98981.41;5075817;28;20231;-90
2023/09/22 09:35:59;;;;;;;3.67;2.10;;;;;;;35.91;30.82;98978.03;5075255;28;20192;-91
2023/09/22 09:38:28;;;;;;;5.28;2.47;;;;;;;35.58;30.23;98976.09;5075112;28;20177;-90
2023/09/22 09:40:58;;;;;;;3.97;2.10;;;;;;;35.64;31.18;98974.31;5075208;28;20252;-91
2023/09/22 09:43:25;;;;;;;9.70;2.13;;;;;;;35.68;30.32;98978.19;5074812;28;20196;-89
2023/09/22 09:45:57;;;;;;;3.88;2.05;;;;;;;35.54;31.42;98972.19;5075056;28;20184;-90
2023/09/22 09:48:24;;;;;;;3.13;1.60;;;;;;;35.32;30.95;98973.13;5057142;28;20191;-90
2023/09/22 09:50:59;;;;;;;4.63;2.38;;;;;;;35.45;31.61;98973.66;5074474;28;20188;-90
2023/09/22 09:53:31;;;;;;;4.72;1.90;;;;;;;35.67;31.00;98971.06;5074800;28;20169;-90
2023/09/22 09:56:03;;;;;;;5.93;2.03;;;;;;;36.00;30.50;98959.34;5074825;28;20176;-90
2023/09/22 09:58:35;;;;;;;5.05;2.45;;;;;;;36.07;30.51;98960.03;5074459;28;20180;-91
2023/09/22 10:01:07;;;;;;;3.70;1.95;;;;;;;36.34;30.41;98961.84;5074758;28;20267;-91
2023/09/22 10:03:36;;;;;;;5.05;2.00;;;;;;;36.30;30.44;98957.94;5074553;28;20214;-92
2023/09/22 10:06:09;;;;;;;3.92;1.73;;;;;;;36.38;30.17;98956.69;5056880;28;20184;-90
2023/09/22 10:08:38;;;;;;;7.47;2.65;;;;;;;36.46;29.76;98942.59;5074527;28;20161;-89
2023/09/22 10:11:06;;;;;;;5.00;2.17;;;;;;;36.29;30.62;98937.19;5063497;28;20185;-90
2023/09/22 10:13:35;;;;;;;5.82;2.55;;;;;;;36.52;29.70;98944.34;5054801;28;20166;-90
2023/09/22 10:16:08;;;;;;;4.47;2.10;;;;;;;36.25;30.17;98938.75;5053138;28;20255;-90
2023/09/22 10:18:59;;;;;;;4.10;1.70;;;;;;;36.49;30.36;98930.38;5074176;28;20169;-91
2023/09/22 10:21:41;;;;;;;7.50;2.70;;;;;;;36.67;31.03;98922.69;5074382;28;20176;-89
2023/09/22 10:24:17;;;;;;;5.63;2.03;;;;;;;36.88;31.16;98924.59;5074082;28;20276;-90
2023/09/22 10:27:06;;;;;;;5.63;2.47;;;;;;;36.76;29.54;98920.38;5074696;28;20286;-90
2023/09/22 10:29:41;;;;;;;6.32;2.55;;;;;;;37.15;29.27;98918.38;5073987;28;20177;-89
2023/09/22 10:32:26;;;;;;;5.80;2.22;;;;;;;37.30;29.68;98904.84;5056158;28;20204;-92
2023/09/22 10:35:05;;;;;;;9.48;2.75;;;;;;;37.13;28.74;98902.25;5074056;28;20195;-89
2023/09/22 10:37:35;;;;;;;3.88;2.00;;;;;;;37.28;29.69;98909.75;5073961;28;20257;-90
2023/09/22 10:40:12;;;;;;;4.55;2.10;;;;;;;37.19;28.74;98903.09;5073711;28;20185;-91
2023/09/22 10:42:49;;;;;;;7.82;2.38;;;;;;;37.02;29.64;98896.91;5056169;28;20291;-89
2023/09/22 10:45:28;;;;;;;3.97;1.75;;;;;;;37.19;28.85;98886.69;5053903;28;20231;-90
2023/09/22 10:47:56;;;;;;;5.43;2.78;;;;;;;37.31;28.36;98895.56;5054050;28;20169;-89
2023/09/22 10:50:30;;;;;;;4.47;2.22;;;;;;;37.20;29.52;98889.19;5053839;28;20170;-90
2023/09/22 10:53:00;;;;;;;7.25;2.47;;;;;;;37.34;28.87;98890.44;5050077;28;20622;-89
2023/09/22 10:55:36;;;;;;;12.93;2.05;;;;;;;37.55;29.14;98875.84;5073585;28;20217;-90
2023/09/22 10:58:06;;;;;;;4.68;2.10;;;;;;;37.63;28.10;98877.31;5073329;28;20241;-90
2023/09/22 11:00:42;;;;;;;3.95;2.13;;;;;;;37.84;28.97;98867.34;5073760;28;20642;-90
2023/09/22 11:03:14;;;;;;;4.07;1.90;;;;;;;37.93;28.65;98868.50;5072924;28;20634;-90
2023/09/22 11:05:42;;;;;;;5.75;1.77;;;;;;;38.12;28.19;98867.81;5073468;28;20262;-89
2023/09/22 11:08:15;;;;;;;5.85;1.90;;;;;;;38.11;27.99;98860.69;5073716;28;20710;-89
2023/09/22 11:10:48;;;;;;;3.05;1.60;;;;;;;38.44;27.98;98859.53;5073056;28;20184;-89
2023/09/22 11:13:15;;;;;;;6.78;2.10;;;;;;;38.62;26.92;98852.75;5055729;28;20661;-89
2023/09/22 11:15:57;;;;;;;6.10;1.90;;;;;;;38.52;27.35;98853.53;5073375;28;20180;-89
2023/09/22 11:18:31;;;;;;;3.50;1.92;;;;;;;38.70;27.48;98849.50;5072961;28;20192;-90
2023/09/22 11:21:05;;;;;;;8.27;1.98;;;;;;;38.79;26.79;98839.66;5072762;28;20180;-90
2023/09/22 11:23:35;;;;;;;4.63;2.17;;;;;;;38.68;26.58;98846.19;5073835;28;20157;-89
2023/09/22 11:26:07;;;;;;;5.38;2.45;;;;;;;38.30;26.43;98838.31;5073035;28;20191;-90
2023/09/22 11:28:35;;;;;;;4.20;2.17;;;;;;;38.56;26.90;98829.16;5073281;28;20181;-90
2023/09/22 11:31:22;;;;;;;7.10;2.35;;;;;;;38.86;26.81;98829.28;5073177;28;20177;-90
2023/09/22 11:34:03;;;;;;;6.65;1.90;;;;;;;39.02;26.68;98830.13;5053375;28;20162;-90
2023/09/22 11:36:51;;;;;;;7.65;2.45;;;;;;;38.92;26.86;98819.13;5063901;28;20177;-90
2023/09/22 11:39:29;;;;;;;17.02;5.63;;;;;;;38.75;26.99;98822.13;5055558;28;20665;-90